Time;durP1;ratioP1;P1;durP2;ratioP2;P2;SDS_P1;SDS_P2;PMS_P1;PMS_P2;Temp;Humidity;BMP_temperature;BMP_pressure;BME280_temperature;BME280_humidity;BME280_pressure;Samples;Min_cycle;Max_cycle;Signal;HPM_P1;HPM_P2
2022/12/04 00:01:12;;;;;;;74.53;16.90;;;;;;;11.27;75.87;100221.84;6250112;22;20164;-90
2022/12/04 00:03:38;;;;;;;67.73;17.17;;;;;;;11.31;76.11;100223.47;6277107;22;20209;-89
2022/12/04 00:06:14;;;;;;;79.20;19.77;;;;;;;11.23;76.17;100215.03;6250195;22;20231;-89
2022/12/04 00:08:42;;;;;;;79.67;18.87;;;;;;;11.25;76.11;100228.94;6277144;22;20144;-88
2022/12/04 00:11:10;;;;;;;89.17;19.63;;;;;;;11.22;76.17;100225.56;6277162;22;20222;-89
2022/12/04 00:13:37;;;;;;;55.50;14.93;;;;;;;11.28;75.78;100228.81;6249982;22;20160;-89
2022/12/04 00:16:05;;;;;;;49.17;14.63;;;;;;;11.21;75.91;100227.34;6250022;22;20214;-90
2022/12/04 00:18:32;;;;;;;54.80;14.03;;;;;;;11.23;76.13;100222.03;6276784;22;20145;-89
2022/12/04 00:21:02;;;;;;;49.40;14.43;;;;;;;11.14;76.58;100219.78;6249705;22;20265;-88
2022/12/04 00:23:27;;;;;;;34.00;12.03;;;;;;;11.12;76.47;100222.44;6276547;22;20159;-89
2022/12/04 00:25:59;;;;;;;38.90;12.47;;;;;;;11.20;76.06;100219.53;6249997;22;20148;-89
2022/12/04 00:28:26;;;;;;;33.37;10.93;;;;;;;11.07;76.56;100225.25;6276696;22;20137;-89
2022/12/04 00:30:51;;;;;;;31.53;10.87;;;;;;;11.10;76.29;100222.50;6276572;22;20156;-89
2022/12/04 00:33:16;;;;;;;32.20;11.27;;;;;;;11.04;76.49;100225.34;6276589;22;20144;-89
2022/12/04 00:35:43;;;;;;;38.93;11.10;;;;;;;11.11;76.27;100228.59;6250020;22;20152;-90
2022/12/04 00:38:10;;;;;;;27.20;9.77;;;;;;;11.00;76.92;100228.16;6277206;22;20148;-89
2022/12/04 00:40:35;;;;;;;31.20;11.30;;;;;;;11.06;76.55;100233.16;6277345;22;20149;-89
2022/12/04 00:43:02;;;;;;;31.23;11.27;;;;;;;11.11;76.64;100221.56;6276821;22;20444;-89
2022/12/04 00:45:28;;;;;;;30.07;11.40;;;;;;;11.17;76.50;100215.25;6276808;22;20225;-89
2022/12/04 00:47:55;;;;;;;32.17;10.73;;;;;;;11.07;76.50;100219.13;6249723;22;20161;-89
2022/12/04 00:50:21;;;;;;;39.57;13.40;;;;;;;11.06;76.12;100222.66;6277130;22;20155;-89
2022/12/04 00:52:46;;;;;;;37.63;13.40;;;;;;;11.04;76.56;100225.34;6276857;22;20145;-89
2022/12/04 00:55:12;;;;;;;48.33;12.90;;;;;;;11.07;76.61;100224.38;6276478;22;20581;-88
2022/12/04 00:57:38;;;;;;;28.43;11.27;;;;;;;11.04;76.60;100221.88;6276388;22;20295;-89
2022/12/04 01:00:06;;;;;;;30.63;11.37;;;;;;;11.06;76.30;100233.16;6276530;22;20145;-89
2022/12/04 01:02:32;;;;;;;37.17;12.60;;;;;;;11.10;76.66;100230.38;6276360;22;20148;-89
2022/12/04 01:05:01;;;;;;;38.00;13.30;;;;;;;11.13;76.54;100224.16;6276282;22;20260;-90
2022/12/04 01:07:28;;;;;;;35.87;11.30;;;;;;;11.15;76.24;100227.56;6249602;22;20164;-89
2022/12/04 01:09:53;;;;;;;33.30;11.40;;;;;;;11.18;76.42;100229.22;6276687;22;20148;-89
2022/12/04 01:12:18;;;;;;;31.23;11.33;;;;;;;11.08;76.31;100229.56;6276759;22;20148;-89
2022/12/04 01:14:45;;;;;;;28.77;11.73;;;;;;;11.07;76.29;100224.38;6277061;22;20231;-89
2022/12/04 01:17:12;;;;;;;35.10;12.27;;;;;;;11.13;76.35;100225.94;6276795;22;20155;-89
2022/12/04 01:19:38;;;;;;;36.53;12.63;;;;;;;11.04;76.21;100225.34;6276687;22;20178;-89
2022/12/04 01:22:03;;;;;;;40.33;11.40;;;;;;;11.09;76.23;100225.19;6276275;22;20625;-89
2022/12/04 01:24:29;;;;;;;27.97;10.97;;;;;;;11.15;76.24;100231.97;6276207;22;20195;-89
2022/12/04 01:26:56;;;;;;;28.27;10.20;;;;;;;11.17;75.31;100225.75;6249641;22;20156;-89
2022/12/04 01:29:22;;;;;;;29.07;11.47;;;;;;;11.11;75.61;100223.34;6276957;22;20144;-89
2022/12/04 01:31:49;;;;;;;29.23;11.17;;;;;;;11.15;75.85;100227.56;6276645;22;20214;-89
2022/12/04 01:34:16;;;;;;;26.57;9.60;;;;;;;11.04;75.83;100219.25;6276889;22;20195;-89
2022/12/04 01:36:43;;;;;;;31.47;9.63;;;;;;;10.96;76.36;100221.28;6276322;22;20148;-89
2022/12/04 01:39:09;;;;;;;25.97;9.67;;;;;;;10.98;76.26;100220.31;6249456;22;20184;-89
2022/12/04 01:41:36;;;;;;;23.30;9.37;;;;;;;11.07;75.89;100222.63;6249499;22;20156;-89
2022/12/04 01:44:16;;;;;;;27.77;10.97;;;;;;;11.10;76.19;100221.66;6276468;22;20310;-89
2022/12/04 01:46:50;;;;;;;23.97;10.03;;;;;;;11.10;76.09;100219.88;6276887;22;20148;-89
2022/12/04 01:49:33;;;;;;;31.03;9.60;;;;;;;11.17;76.01;100224.88;6249497;22;20444;-90
2022/12/04 01:52:09;;;;;;;39.13;11.97;;;;;;;11.09;75.82;100222.56;6276544;22;20137;-89
2022/12/04 01:54:41;;;;;;;36.83;11.27;;;;;;;11.14;76.56;100209.28;6249588;22;20152;-89
2022/12/04 01:57:18;;;;;;;36.07;12.77;;;;;;;11.20;76.40;100214.28;6276796;22;20240;-89
2022/12/04 01:59:52;;;;;;;30.63;11.30;;;;;;;11.24;76.18;100210.63;6278177;22;20173;-90
2022/12/04 02:02:24;;;;;;;46.33;14.40;;;;;;;11.26;76.05;100212.28;6278371;22;20220;-89
2022/12/04 02:04:51;;;;;;;55.43;15.50;;;;;;;11.24;75.27;100215.88;6278575;22;20215;-90
2022/12/04 02:07:18;;;;;;;53.70;16.33;;;;;;;11.26;75.67;100220.16;6277862;22;20620;-89
2022/12/04 02:09:52;;;;;;;64.93;18.13;;;;;;;11.30;75.70;100213.88;6278586;22;20149;-89
2022/12/04 02:12:43;;;;;;;51.77;14.93;;;;;;;11.30;75.38;100208.63;6278614;22;20136;-89
2022/12/04 02:15:17;;;;;;;57.83;16.17;;;;;;;11.34;74.78;100215.47;6216111;22;20167;-90
2022/12/04 02:18:12;;;;;;;46.27;13.87;;;;;;;11.32;75.26;100209.41;6278358;22;20134;-90
2022/12/04 02:20:40;;;;;;;34.47;14.77;;;;;;;11.24;74.79;100206.22;6274818;22;20299;-89
2022/12/04 02:23:37;;;;;;;38.47;15.23;;;;;;;11.16;75.39;100208.31;6277806;22;20227;-89
2022/12/04 02:26:41;;;;;;;35.57;13.03;;;;;;;11.10;75.85;100204.13;6278128;22;20137;-89
2022/12/04 02:29:39;;;;;;;48.97;12.93;;;;;;;11.17;75.51;100199.50;6278358;22;20141;-89
2022/12/04 02:32:26;;;;;;;37.33;14.03;;;;;;;11.20;75.75;100198.53;6278427;22;20152;-88
2022/12/04 02:34:59;;;;;;;28.97;12.17;;;;;;;11.26;75.09;100212.28;6278079;22;20137;-89
2022/12/04 02:37:37;;;;;;;35.27;12.50;;;;;;;11.25;75.51;100210.56;6278086;22;20214;-88
2022/12/04 02:40:25;;;;;;;33.57;11.60;;;;;;;11.30;75.03;100199.88;6278016;22;20164;-89
2022/12/04 02:43:06;;;;;;;29.93;12.33;;;;;;;11.25;75.18;100209.72;6278004;22;20132;-89
2022/12/04 02:45:40;;;;;;;23.07;9.47;;;;;;;11.25;74.66;100204.47;6277873;22;20164;-89
2022/12/04 02:48:07;;;;;;;29.37;10.70;;;;;;;11.19;74.74;100204.72;6277893;22;20132;-89
2022/12/04 02:50:39;;;;;;;25.90;10.93;;;;;;;11.09;75.69;100206.81;6277927;22;20639;-89
2022/12/04 02:53:09;;;;;;;35.97;12.17;;;;;;;11.14;75.17;100198.78;6277849;22;20170;-89
2022/12/04 02:55:43;;;;;;;27.23;10.73;;;;;;;11.18;75.24;100205.63;6278151;22;20133;-88
2022/12/04 02:58:20;;;;;;;26.47;9.00;;;;;;;11.14;75.40;100206.66;6250764;22;20239;-89
2022/12/04 03:00:47;;;;;;;25.27;9.73;;;;;;;11.13;75.14;100207.56;6277868;22;20148;-89
2022/12/04 03:03:25;;;;;;;21.87;8.20;;;;;;;11.13;75.01;100205.78;6250596;22;20234;-89
2022/12/04 03:05:54;;;;;;;18.37;8.40;;;;;;;11.13;75.25;100208.41;6278041;22;20579;-89
2022/12/04 03:08:28;;;;;;;28.77;8.43;;;;;;;11.13;75.19;100211.03;6277335;22;20144;-89
2022/12/04 03:10:59;;;;;;;16.47;7.23;;;;;;;11.14;75.17;100199.63;6277134;22;20129;-89
2022/12/04 03:14:06;;;;;;;17.53;8.00;;;;;;;11.15;75.06;100205.72;6278010;22;20133;-89
2022/12/04 03:16:38;;;;;;;22.97;9.17;;;;;;;11.18;75.25;100203.84;6230644;22;20495;-89
2022/12/04 03:19:28;;;;;;;19.67;7.03;;;;;;;11.09;75.44;100212.06;6277754;22;20133;-89
2022/12/04 03:22:00;;;;;;;20.37;8.53;;;;;;;11.08;75.45;100205.13;6245043;23;20204;-89
2022/12/04 03:24:46;;;;;;;16.67;6.20;;;;;;;11.12;75.68;100214.56;6246902;22;20592;-89
2022/12/04 03:27:50;;;;;;;19.80;7.43;;;;;;;11.16;75.39;100208.31;6245457;23;20153;-89
2022/12/04 03:30:20;;;;;;;17.63;8.27;;;;;;;11.18;75.33;100206.47;6245367;23;20280;-89
2022/12/04 03:33:02;;;;;;;16.43;6.70;;;;;;;11.23;74.77;100214.16;6247282;22;20556;-89
2022/12/04 03:35:59;;;;;;;16.17;6.90;;;;;;;11.16;75.35;100210.94;6246911;22;20133;-89
2022/12/04 03:38:47;;;;;;;17.53;6.47;;;;;;;11.16;75.41;100212.69;6246474;22;20145;-89
2022/12/04 03:41:19;;;;;;;19.23;7.20;;;;;;;11.16;75.25;100208.31;6245350;23;20516;-89
2022/12/04 03:44:24;;;;;;;23.87;8.77;;;;;;;11.15;75.20;100216.22;6245234;23;20479;-88
2022/12/04 03:47:06;;;;;;;17.07;6.13;;;;;;;11.21;74.96;100216.88;6247085;22;20159;-89
2022/12/04 03:49:53;;;;;;;13.50;5.87;;;;;;;11.23;75.43;100211.53;6245163;23;20537;-88
2022/12/04 03:52:41;;;;;;;18.70;7.53;;;;;;;11.25;75.10;100221.06;6246265;23;20561;-88
2022/12/04 03:55:21;;;;;;;14.23;6.23;;;;;;;11.20;75.05;100223.00;6246699;22;20530;-89
2022/12/04 03:57:51;;;;;;;17.33;6.27;;;;;;;11.22;75.23;100217.69;6247057;22;20608;-89
2022/12/04 04:00:22;;;;;;;14.50;6.63;;;;;;;11.28;74.69;100222.72;6246601;22;20161;-88
2022/12/04 04:03:02;;;;;;;21.20;6.40;;;;;;;11.30;75.09;100219.13;6246607;23;20148;-89
2022/12/04 04:05:30;;;;;;;14.83;6.87;;;;;;;11.32;74.88;100219.91;6246528;22;20164;-89
2022/12/04 04:10:49;;;;;;;17.77;6.53;;;;;;;11.31;74.80;100227.84;6246174;23;20167;-89
2022/12/04 04:24:36;;;;;;;14.77;5.80;;;;;;;11.39;74.30;100225.78;6277022;22;20601;-89
2022/12/04 04:27:04;;;;;;;16.60;5.87;;;;;;;11.41;74.67;100227.44;6276788;22;20133;-89
2022/12/04 04:29:31;;;;;;;14.57;5.67;;;;;;;11.42;74.22;100229.16;6276586;22;20160;-89
2022/12/04 04:32:13;;;;;;;18.13;5.63;;;;;;;11.45;74.27;100225.56;6249834;22;20557;-89
2022/12/04 04:34:51;;;;;;;15.30;5.93;;;;;;;11.41;74.28;100227.44;6276961;22;20141;-89
2022/12/04 04:37:54;;;;;;;15.53;6.33;;;;;;;11.40;74.44;100222.25;6249924;22;20158;-89
2022/12/04 04:41:02;;;;;;;15.93;5.93;;;;;;;11.39;74.51;100226.66;6249820;22;20209;-88
2022/12/04 04:44:09;;;;;;;14.13;5.90;;;;;;;11.44;74.44;100229.97;6258032;22;20156;-88
2022/12/04 04:46:41;;;;;;;18.27;6.00;;;;;;;11.45;74.30;100231.66;6208302;22;20168;-89
2022/12/04 04:49:09;;;;;;;15.97;6.03;;;;;;;11.46;74.20;100232.50;6249752;22;20191;-89
2022/12/04 04:51:36;;;;;;;10.73;4.87;;;;;;;11.39;74.20;100229.28;6276450;22;20149;-89
2022/12/04 04:54:09;;;;;;;20.53;6.33;;;;;;;11.44;74.21;100229.09;6249708;22;20161;-89
2022/12/04 04:56:46;;;;;;;11.80;5.53;;;;;;;11.44;73.90;100235.19;6276798;22;20136;-89
2022/12/04 04:59:13;;;;;;;17.10;6.03;;;;;;;11.44;73.83;100235.19;6249824;22;20489;-89
2022/12/04 05:01:42;;;;;;;14.53;5.80;;;;;;;11.45;74.00;100234.28;6276790;22;20149;-89
2022/12/04 05:04:08;;;;;;;14.90;5.70;;;;;;;11.45;74.08;100236.91;6277372;22;20238;-88
2022/12/04 05:06:35;;;;;;;16.77;6.40;;;;;;;11.43;74.01;100233.47;6276369;22;20512;-89
2022/12/04 05:09:00;;;;;;;11.87;6.17;;;;;;;11.45;73.59;100236.06;6276412;22;20170;-89
2022/12/04 05:11:25;;;;;;;15.07;6.60;;;;;;;11.42;73.79;100242.28;6276757;22;20152;-88
2022/12/04 05:13:52;;;;;;;19.20;6.53;;;;;;;11.43;73.88;100241.34;6276385;22;20156;-89
2022/12/04 05:16:19;;;;;;;13.40;6.00;;;;;;;11.46;73.72;100243.88;6276721;22;20629;-89
2022/12/04 05:21:30;;;;;;;13.33;6.13;;;;;;;11.39;73.38;100237.16;6276293;22;20211;-89
2022/12/04 05:23:56;;;;;;;20.40;6.53;;;;;;;11.37;73.81;100236.34;6249463;22;20180;-88
2022/12/04 05:26:23;;;;;;;14.63;6.77;;;;;;;11.37;73.82;100243.38;6276631;22;20295;-88
2022/12/04 05:28:50;;;;;;;15.33;7.70;;;;;;;11.35;74.02;100240.78;6276959;22;20580;-89
2022/12/04 05:31:15;;;;;;;11.57;6.10;;;;;;;11.32;74.08;100240.91;6249390;22;20226;-89
2022/12/04 05:33:42;;;;;;;14.23;6.13;;;;;;;11.33;74.23;100240.00;6276760;22;20145;-89
2022/12/04 05:36:09;;;;;;;17.60;6.43;;;;;;;11.37;73.98;100238.13;6278174;22;20152;-88
2022/12/04 05:38:36;;;;;;;23.30;6.50;;;;;;;11.36;74.08;100249.53;6278206;22;20206;-89
2022/12/04 05:41:04;;;;;;;11.33;5.80;;;;;;;11.35;74.53;100259.16;6278193;22;20156;-89
2022/12/04 05:43:32;;;;;;;17.23;6.83;;;;;;;11.35;73.67;100259.16;6278156;22;20146;-89
2022/12/04 05:46:07;;;;;;;13.63;7.00;;;;;;;11.34;73.95;100254.00;6278075;22;20246;-89
2022/12/04 05:48:34;;;;;;;15.43;7.03;;;;;;;11.32;74.21;100256.66;6278550;22;20250;-89
2022/12/04 05:51:10;;;;;;;15.37;6.27;;;;;;;11.38;74.09;100251.19;6278516;22;20144;-89
2022/12/04 05:53:36;;;;;;;15.03;7.03;;;;;;;11.37;74.19;100253.88;6278838;22;20136;-89
2022/12/04 05:56:04;;;;;;;15.13;6.43;;;;;;;11.41;74.15;100258.09;6278145;22;20595;-89
2022/12/04 05:58:35;;;;;;;17.73;6.73;;;;;;;11.38;74.05;100261.69;6251322;22;20155;-88
2022/12/04 06:01:11;;;;;;;20.47;8.70;;;;;;;11.42;74.41;100263.28;6278087;22;20502;-89
2022/12/04 06:03:37;;;;;;;18.50;7.00;;;;;;;11.47;73.57;100261.34;6278676;22;20147;-89
2022/12/04 06:06:09;;;;;;;28.30;8.47;;;;;;;11.39;74.09;100267.78;6277979;22;20148;-89
2022/12/04 06:08:36;;;;;;;29.67;8.27;;;;;;;11.40;74.28;100266.91;6278400;22;20226;-89
2022/12/04 06:11:09;;;;;;;21.90;8.00;;;;;;;11.41;74.12;100268.59;6251569;22;20235;-89
2022/12/04 06:13:36;;;;;;;26.63;7.93;;;;;;;11.37;74.28;100267.84;6278369;22;20595;-89
2022/12/04 06:16:03;;;;;;;27.73;8.90;;;;;;;11.42;74.89;100275.56;6251201;22;20152;-89
2022/12/04 06:18:29;;;;;;;18.43;6.40;;;;;;;11.48;74.61;100273.53;6278208;22;20467;-89
2022/12/04 06:20:58;;;;;;;19.20;7.33;;;;;;;11.46;74.91;100275.38;6277710;22;20527;-89
2022/12/04 06:23:23;;;;;;;19.50;6.23;;;;;;;11.46;74.58;100280.63;6278198;22;20147;-89
2022/12/04 06:25:49;;;;;;;21.87;6.70;;;;;;;11.46;74.81;100279.75;6277751;22;20168;-88
2022/12/04 06:28:15;;;;;;;22.03;6.03;;;;;;;11.43;74.92;100286.00;6251096;22;20166;-89
2022/12/04 06:30:41;;;;;;;13.40;4.57;;;;;;;11.39;74.85;100284.41;6278133;22;20164;-89
2022/12/04 06:33:07;;;;;;;18.40;5.83;;;;;;;11.40;75.11;100291.34;6277732;22;20145;-88
2022/12/04 06:35:33;;;;;;;13.43;5.70;;;;;;;11.50;74.61;100291.88;6278089;22;20148;-89
2022/12/04 06:38:00;;;;;;;19.10;4.90;;;;;;;11.51;75.11;100294.44;6277679;22;20144;-89
2022/12/04 06:40:27;;;;;;;12.60;5.37;;;;;;;11.47;74.84;100298.09;6278021;22;20235;-89
2022/12/04 06:42:53;;;;;;;15.00;5.13;;;;;;;11.20;75.73;100299.13;6277660;22;20148;-89
2022/12/04 06:45:18;;;;;;;14.13;5.20;;;;;;;11.16;76.34;100299.28;6277403;22;20645;-89
2022/12/04 06:47:45;;;;;;;14.10;5.00;;;;;;;11.13;76.24;100310.75;6277617;22;20160;-89
2022/12/04 06:50:11;;;;;;;17.33;6.00;;;;;;;11.14;76.62;100304.56;6277704;22;20237;-89
2022/12/04 06:52:36;;;;;;;17.90;6.07;;;;;;;11.15;76.62;100308.94;6278187;22;20172;-89
2022/12/04 06:55:02;;;;;;;34.67;7.33;;;;;;;11.12;76.64;100306.41;6277515;22;20145;-89
2022/12/04 06:57:29;;;;;;;21.13;5.97;;;;;;;11.05;77.43;100304.94;6277880;22;20230;-89
2022/12/04 06:59:55;;;;;;;19.43;6.10;;;;;;;11.05;77.53;100305.78;6277855;22;20522;-89
2022/12/04 07:02:22;;;;;;;21.03;7.90;;;;;;;11.14;77.83;100309.00;6277501;22;20157;-89
2022/12/04 07:04:48;;;;;;;23.77;7.07;;;;;;;11.22;77.51;100306.91;6277399;22;20179;-89
2022/12/04 07:07:14;;;;;;;22.77;7.93;;;;;;;11.29;77.44;100305.81;6277533;22;20149;-89
2022/12/04 07:09:41;;;;;;;47.40;14.53;;;;;;;11.37;77.24;100304.59;6277785;22;20215;-89
2022/12/04 07:12:07;;;;;;;33.47;10.07;;;;;;;11.40;77.05;100312.34;6250674;22;20153;-89
2022/12/04 07:14:34;;;;;;;184.33;38.83;;;;;;;11.32;77.11;100310.94;6277415;22;20146;-89
2022/12/04 07:17:00;;;;;;;119.63;28.27;;;;;;;11.16;77.22;100312.41;6277327;22;20233;-88
2022/12/04 07:19:27;;;;;;;50.50;14.33;;;;;;;11.20;77.49;100309.63;6277993;22;20187;-89
2022/12/04 07:21:52;;;;;;;34.33;10.63;;;;;;;11.22;77.18;100315.66;6273322;22;20608;-89
2022/12/04 07:24:19;;;;;;;21.90;9.03;;;;;;;11.31;77.47;100304.84;6276022;22;20177;-89
2022/12/04 07:26:45;;;;;;;29.33;9.43;;;;;;;11.34;77.14;100304.72;6277289;22;20149;-88
2022/12/04 07:29:12;;;;;;;27.07;7.83;;;;;;;11.42;76.88;100305.31;6224785;22;20604;-89
2022/12/04 07:31:39;;;;;;;24.63;8.17;;;;;;;11.12;77.55;100303.78;6276861;22;20500;-89
2022/12/04 07:34:06;;;;;;;32.93;10.13;;;;;;;11.05;77.93;100305.78;6277039;22;20211;-89
2022/12/04 07:36:32;;;;;;;19.60;7.40;;;;;;;11.17;77.70;100314.09;6276059;22;20156;-89
2022/12/04 07:38:59;;;;;;;40.70;10.97;;;;;;;11.09;77.82;100315.25;6248879;22;20573;-89
2022/12/04 07:41:25;;;;;;;25.10;9.67;;;;;;;11.17;78.06;100317.59;6249097;22;20160;-89
2022/12/04 07:43:53;;;;;;;31.23;10.07;;;;;;;11.09;78.29;100322.25;6276848;22;20151;-90
2022/12/04 07:46:22;;;;;;;19.37;7.20;;;;;;;11.11;77.96;100321.28;6277738;22;20149;-89
2022/12/04 07:48:49;;;;;;;16.20;6.27;;;;;;;11.10;78.04;100324.84;6225347;22;20161;-89
2022/12/04 07:51:25;;;;;;;21.47;6.03;;;;;;;11.07;78.50;100329.34;6276944;22;20144;-89
2022/12/04 07:53:53;;;;;;;13.30;4.53;;;;;;;11.06;78.11;100328.47;6249335;22;20218;-90
2022/12/04 07:56:19;;;;;;;15.33;5.43;;;;;;;10.97;78.22;100327.94;6248838;22;20253;-89
2022/12/04 07:58:45;;;;;;;14.23;5.13;;;;;;;11.02;78.41;100331.28;6250022;22;20324;-89
2022/12/04 08:01:17;;;;;;;11.07;5.23;;;;;;;11.09;77.85;100332.75;6250040;22;20160;-89
2022/12/04 08:03:44;;;;;;;9.30;3.73;;;;;;;11.07;77.84;100330.19;6276674;22;20218;-90
2022/12/04 08:06:10;;;;;;;10.33;3.87;;;;;;;11.05;78.13;100336.41;6276697;22;20175;-90
2022/12/04 08:08:36;;;;;;;17.10;4.97;;;;;;;11.03;78.16;100333.81;6276538;22;20472;-90
2022/12/04 08:11:07;;;;;;;6.63;3.27;;;;;;;11.16;77.92;100336.91;6276669;22;20141;-89
2022/12/04 08:13:34;;;;;;;8.40;3.63;;;;;;;11.15;77.94;100337.78;6276760;22;20137;-90
2022/12/04 08:16:02;;;;;;;9.03;3.20;;;;;;;11.11;77.75;100330.94;6277172;22;20140;-89
2022/12/04 08:18:29;;;;;;;3.70;1.43;;;;;;;10.90;77.98;100334.34;6277404;22;20229;-90
2022/12/04 08:21:13;;;;;;;3.40;1.67;;;;;;;10.80;78.45;100336.41;6248526;22;20176;-89
2022/12/04 08:23:42;;;;;;;5.87;2.93;;;;;;;10.77;78.50;100330.41;6240592;23;20196;-89
2022/12/04 08:26:11;;;;;;;5.53;2.73;;;;;;;10.83;78.44;100327.56;6218764;23;20166;-89
2022/12/04 08:28:38;;;;;;;7.30;2.20;;;;;;;10.86;78.88;100325.72;6246196;23;20215;-89
2022/12/04 08:31:17;;;;;;;5.93;2.93;;;;;;;10.76;79.30;100337.44;6245970;23;20149;-89
2022/12/04 08:33:45;;;;;;;6.57;3.57;;;;;;;10.59;79.20;100326.63;6245098;23;20542;-89
2022/12/04 08:36:15;;;;;;;11.37;3.37;;;;;;;10.35;80.02;100328.31;6245584;23;20493;-88
2022/12/04 08:38:40;;;;;;;6.03;2.97;;;;;;;10.51;79.52;100327.81;6245482;23;20541;-89
2022/12/04 08:41:09;;;;;;;18.43;5.20;;;;;;;10.18;80.38;100335.88;6245352;23;20168;-89
2022/12/04 08:43:35;;;;;;;11.33;3.77;;;;;;;10.29;80.97;100328.53;6245432;23;20488;-89
2022/12/04 08:46:03;;;;;;;16.40;5.13;;;;;;;10.27;81.58;100322.44;6245286;23;20207;-90
2022/12/04 08:48:29;;;;;;;8.27;2.83;;;;;;;10.57;80.51;100317.09;6219171;23;20153;-90
2022/12/04 08:50:55;;;;;;;20.00;4.80;;;;;;;10.69;80.22;100311.47;6219299;23;20164;-90
2022/12/04 08:53:22;;;;;;;8.50;3.13;;;;;;;10.78;79.41;100317.25;6219311;23;20592;-89
2022/12/04 08:55:47;;;;;;;8.80;3.13;;;;;;;10.95;79.27;100320.13;6246149;23;20145;-89
2022/12/04 08:58:13;;;;;;;10.13;3.50;;;;;;;11.02;78.45;100321.63;6245823;23;20159;-89
2022/12/04 09:00:39;;;;;;;5.87;3.27;;;;;;;11.05;77.92;100321.53;6219737;23;20149;-89
2022/12/04 09:03:04;;;;;;;9.97;2.90;;;;;;;10.74;78.58;100315.66;6246110;23;20151;-89
2022/12/04 09:05:30;;;;;;;6.40;2.50;;;;;;;10.71;79.15;100309.66;6219339;23;20326;-90
2022/12/04 09:07:56;;;;;;;7.83;3.10;;;;;;;10.63;79.73;100302.03;6246575;23;20203;-89
2022/12/04 09:10:22;;;;;;;5.73;2.97;;;;;;;10.82;79.07;100315.38;6248247;23;20152;-89
2022/12/04 09:12:47;;;;;;;9.83;3.70;;;;;;;10.90;79.05;100315.97;6247874;23;20149;-90
2022/12/04 09:15:13;;;;;;;5.93;2.80;;;;;;;11.09;78.79;100311.75;6248166;23;20169;-89
2022/12/04 09:17:39;;;;;;;6.93;2.87;;;;;;;10.87;79.10;100309.06;6248488;23;20149;-89
2022/12/04 09:20:06;;;;;;;5.93;2.90;;;;;;;10.98;79.02;100316.53;6221397;23;20192;-89
2022/12/04 09:22:35;;;;;;;7.80;3.40;;;;;;;10.93;78.79;100321.09;6265097;22;20600;-89
2022/12/04 09:25:00;;;;;;;9.50;3.57;;;;;;;10.93;79.16;100315.84;6278261;22;20184;-89
2022/12/04 09:27:26;;;;;;;10.80;3.83;;;;;;;11.04;78.92;100316.31;6279004;22;20153;-89
2022/12/04 09:29:52;;;;;;;6.57;3.00;;;;;;;11.17;78.38;100308.84;6278468;22;20210;-89
2022/12/04 09:32:17;;;;;;;9.37;3.53;;;;;;;11.33;78.03;100305.63;6278671;22;20150;-89
2022/12/04 09:34:43;;;;;;;12.50;5.37;;;;;;;11.15;78.65;100301.06;6278293;22;20144;-89
2022/12/04 09:37:08;;;;;;;5.67;3.33;;;;;;;10.97;78.73;100304.34;6278326;22;20146;-88
2022/12/04 09:39:34;;;;;;;21.03;5.30;;;;;;;10.96;78.88;100292.13;6278301;22;20155;-89
2022/12/04 09:42:08;;;;;;;9.60;2.97;;;;;;;10.85;78.90;100294.25;6278275;22;20181;-89
2022/12/04 09:44:41;;;;;;;19.07;4.80;;;;;;;10.79;79.05;100294.50;6251530;22;20175;-88
2022/12/04 09:47:26;;;;;;;15.30;4.47;;;;;;;10.74;80.09;100289.44;6278574;22;20206;-89
2022/12/04 09:50:04;;;;;;;9.43;3.40;;;;;;;11.02;79.19;100281.41;6251532;22;20147;-89
2022/12/04 09:52:38;;;;;;;12.67;5.23;;;;;;;11.16;79.01;100281.78;6278878;22;20140;-89
2022/12/04 09:55:11;;;;;;;11.30;4.00;;;;;;;11.36;78.56;100279.28;6278466;22;20144;-88
2022/12/04 09:57:47;;;;;;;5.87;2.20;;;;;;;11.29;78.38;100269.91;6251338;22;20235;-89
2022/12/04 10:00:16;;;;;;;8.13;2.73;;;;;;;11.29;77.69;100272.53;6251507;22;20150;-89
2022/12/04 10:02:48;;;;;;;5.37;2.43;;;;;;;11.31;77.65;100270.72;6278058;22;20196;-89
2022/12/04 10:05:23;;;;;;;4.03;1.87;;;;;;;11.14;78.01;100267.84;6252272;22;20495;-89
2022/12/04 10:08:07;;;;;;;4.67;2.03;;;;;;;10.78;78.81;100258.69;6278020;22;20141;-88
2022/12/04 10:10:35;;;;;;;2.57;1.33;;;;;;;10.67;79.53;100256.44;6278350;22;20202;-89
2022/12/04 10:13:10;;;;;;;4.07;2.17;;;;;;;10.95;79.10;100258.94;6251128;22;20158;-89
2022/12/04 10:16:02;;;;;;;5.07;2.20;;;;;;;11.05;78.08;100258.56;6278218;22;20177;-89
2022/12/04 10:18:50;;;;;;;8.90;2.47;;;;;;;10.97;78.78;100246.63;6278621;22;20135;-89
2022/12/04 10:21:29;;;;;;;8.03;4.47;;;;;;;10.92;78.71;100248.56;6207163;22;20627;-89
2022/12/04 10:24:31;;;;;;;11.03;4.57;;;;;;;10.85;79.04;100233.94;6278432;22;20144;-90
2022/12/04 10:26:59;;;;;;;10.97;5.20;;;;;;;11.10;78.39;100233.00;6278352;22;20156;-90
2022/12/04 10:29:31;;;;;;;12.60;4.93;;;;;;;11.29;78.10;100229.69;6277782;22;20145;-88
2022/12/04 10:32:12;;;;;;;12.67;5.47;;;;;;;11.34;77.79;100227.75;6277652;22;20151;-89
2022/12/04 10:34:38;;;;;;;11.80;6.37;;;;;;;11.42;77.04;100230.94;6278416;22;20153;-88
2022/12/04 10:37:11;;;;;;;15.23;6.87;;;;;;;11.39;76.79;100221.41;6278110;22;20173;-89
2022/12/04 10:40:01;;;;;;;9.17;5.73;;;;;;;11.51;76.67;100227.94;6278422;22;20141;-89
2022/12/04 10:42:36;;;;;;;5.93;2.37;;;;;;;11.57;76.20;100220.69;6278058;22;20168;-89
2022/12/04 10:45:04;;;;;;;3.80;2.30;;;;;;;11.56;76.35;100225.97;6278291;22;20194;-89
2022/12/04 10:47:30;;;;;;;3.57;1.47;;;;;;;11.30;76.32;100221.75;6277964;22;20156;-89
2022/12/04 10:50:03;;;;;;;3.60;1.43;;;;;;;11.33;76.62;100220.78;6277628;22;20173;-89
2022/12/04 10:52:29;;;;;;;4.77;2.87;;;;;;;10.98;77.78;100224.72;6278005;22;20131;-89
2022/12/04 10:55:00;;;;;;;3.87;1.40;;;;;;;11.13;77.38;100224.16;6277542;22;20145;-88
2022/12/04 10:57:45;;;;;;;4.27;2.47;;;;;;;11.23;77.37;100222.91;6250790;22;20294;-89
2022/12/04 11:00:28;;;;;;;2.83;1.30;;;;;;;10.83;78.04;100215.66;6250742;22;20249;-88
2022/12/04 11:02:56;;;;;;;5.73;2.03;;;;;;;11.17;77.86;100214.38;6278202;22;20141;-89
2022/12/04 11:05:36;;;;;;;3.37;1.83;;;;;;;11.31;76.89;100205.09;6277380;22;20172;-89
2022/12/04 11:08:04;;;;;;;3.70;1.97;;;;;;;11.41;76.40;100208.22;6278071;22;20157;-88
2022/12/04 11:10:40;;;;;;;4.93;1.90;;;;;;;11.44;76.21;100195.81;6278075;22;20534;-89
2022/12/04 11:13:16;;;;;;;4.40;1.90;;;;;;;11.60;75.49;100191.69;6278172;22;20148;-89
2022/12/04 11:15:45;;;;;;;4.57;1.80;;;;;;;11.59;75.17;100191.72;6250574;22;20517;-88
2022/12/04 11:18:31;;;;;;;4.33;2.50;;;;;;;11.46;75.73;100195.75;6277344;22;20220;-88
2022/12/04 11:20:58;;;;;;;4.83;1.90;;;;;;;11.37;76.09;100194.31;6278075;22;20654;-89
2022/12/04 11:23:26;;;;;;;3.30;1.70;;;;;;;11.44;75.99;100198.44;6245223;23;20530;-89
2022/12/04 11:25:55;;;;;;;3.80;2.00;;;;;;;11.54;75.76;100194.53;6245227;23;20196;-89
2022/12/04 11:28:25;;;;;;;5.37;1.97;;;;;;;11.56;75.84;100187.44;6246897;22;20169;-88
2022/12/04 11:30:54;;;;;;;4.73;1.60;;;;;;;11.40;76.50;100185.50;6246183;22;20208;-89
2022/12/04 11:33:53;;;;;;;2.93;1.53;;;;;;;11.55;76.13;100177.88;6246456;22;20149;-89
2022/12/04 11:36:33;;;;;;;8.50;1.87;;;;;;;11.52;75.95;100172.75;6236623;23;20153;-90
2022/12/04 11:39:37;;;;;;;3.03;1.50;;;;;;;11.48;76.25;100179.03;6245335;23;20149;-89
2022/12/04 11:42:24;;;;;;;5.63;1.77;;;;;;;11.51;76.24;100172.78;6245288;23;20176;-89
2022/12/04 11:45:03;;;;;;;3.43;1.33;;;;;;;11.63;76.07;100177.56;6245110;23;20180;-89
2022/12/04 11:47:31;;;;;;;2.63;1.30;;;;;;;11.67;75.81;100185.25;6246426;22;20224;-89
2022/12/04 11:50:11;;;;;;;4.47;1.97;;;;;;;11.53;76.05;100176.25;6246735;22;20155;-89
2022/12/04 11:52:52;;;;;;;3.30;1.60;;;;;;;11.51;75.62;100175.41;6247131;22;20137;-90
2022/12/04 11:55:31;;;;;;;4.60;1.63;;;;;;;11.51;75.30;100167.53;6246973;22;20239;-89